createdAt,value
2022-07-28T00:00:37.175Z,16.10
2022-07-28T00:03:39.008Z,16.10
2022-07-28T00:06:40.656Z,16.10
2022-07-28T00:09:42.412Z,16.10
2022-07-28T00:12:44.699Z,17.70
2022-07-28T00:15:46.432Z,17.80
2022-07-28T00:18:48.080Z,16.30
2022-07-28T00:21:49.802Z,16.20
2022-07-28T00:24:51.500Z,15.90
2022-07-28T00:27:53.327Z,16.60
2022-07-28T00:31:05.450Z,16.10
2022-07-28T00:34:12.661Z,17.60
2022-07-28T00:37:15.073Z,17.20
2022-07-28T00:40:16.974Z,15.70
2022-07-28T00:43:19.576Z,15.80
2022-07-28T00:46:22.738Z,16.00
2022-07-28T00:49:24.653Z,15.80
2022-07-28T00:52:27.037Z,15.80
2022-07-28T00:55:28.842Z,17.50
2022-07-28T00:58:30.792Z,16.50
2022-07-28T01:01:32.515Z,15.60
2022-07-28T01:04:34.548Z,17.80
2022-07-28T01:07:50.070Z,17.60
2022-07-28T01:10:58.826Z,15.90
2022-07-28T01:14:19.165Z,17.30
2022-07-28T01:17:35.832Z,15.50
2022-07-28T01:20:41.636Z,15.40
2022-07-28T01:24:11.482Z,15.70
2022-07-28T01:27:48.422Z,15.80
2022-07-28T01:31:11.011Z,15.60
2022-07-28T01:34:29.424Z,15.50
2022-07-28T01:37:32.135Z,15.40
2022-07-28T01:40:35.690Z,15.20
2022-07-28T01:43:41.506Z,15.20
2022-07-28T01:46:45.256Z,15.50
2022-07-28T01:49:47.874Z,15.00
2022-07-28T01:52:51.099Z,15.20
2022-07-28T01:55:53.428Z,15.00
2022-07-28T01:58:58.001Z,15.10
2022-07-28T02:02:00.897Z,17.10
2022-07-28T02:05:03.287Z,15.20
2022-07-28T02:08:05.887Z,15.20
2022-07-28T02:11:26.988Z,14.90
2022-07-28T02:14:29.982Z,14.80
2022-07-28T02:17:33.404Z,14.60
2022-07-28T02:20:35.572Z,14.80
2022-07-28T02:23:39.040Z,14.90
2022-07-28T02:26:48.332Z,15.00
2022-07-28T02:30:13.145Z,14.70
2022-07-28T02:33:24.405Z,14.60
2022-07-28T02:36:49.711Z,14.80
2022-07-28T02:40:00.273Z,14.80
2022-07-28T02:43:04.105Z,14.50
2022-07-28T02:46:11.684Z,14.50
2022-07-28T02:49:28.248Z,14.70
2022-07-28T02:52:30.681Z,14.70
2022-07-28T02:55:33.864Z,14.80
2022-07-28T02:58:37.376Z,15.80
2022-07-28T03:01:39.277Z,15.40
2022-07-28T03:04:58.328Z,14.70
2022-07-28T03:08:00.356Z,14.50
2022-07-28T03:11:10.199Z,14.70
2022-07-28T03:14:12.206Z,14.40
2022-07-28T03:17:14.126Z,14.20
2022-07-28T03:20:15.801Z,14.30
2022-07-28T03:23:17.566Z,14.50
2022-07-28T03:26:30.666Z,14.00
2022-07-28T03:29:34.545Z,14.20
2022-07-28T03:32:41.777Z,14.00
2022-07-28T03:35:48.565Z,14.10
2022-07-28T03:39:00.575Z,14.40
2022-07-28T03:42:04.038Z,14.50
2022-07-28T03:45:06.603Z,14.20
2022-07-28T03:48:08.640Z,14.20
2022-07-28T03:51:10.327Z,14.10
2022-07-28T03:54:12.284Z,14.00
2022-07-28T03:57:14.077Z,13.90
2022-07-28T04:00:17.185Z,14.00
2022-07-28T04:03:34.954Z,14.00
2022-07-28T04:06:41.519Z,14.40
2022-07-28T04:09:43.072Z,13.80
2022-07-28T04:12:55.364Z,14.30
2022-07-28T04:15:56.947Z,14.10
2022-07-28T04:18:58.519Z,15.00
2022-07-28T04:22:00.136Z,14.00
2022-07-28T04:25:01.929Z,14.00
2022-07-28T04:28:05.499Z,14.10
2022-07-28T04:31:07.227Z,14.10
2022-07-28T04:34:09.730Z,14.10
2022-07-28T04:37:11.845Z,14.10
2022-07-28T04:40:14.044Z,13.90
2022-07-28T04:43:15.702Z,14.40
2022-07-28T04:46:17.350Z,13.90
2022-07-28T04:49:19.073Z,13.60
2022-07-28T04:52:21.846Z,14.20
2022-07-28T04:55:23.425Z,15.00
2022-07-28T04:58:25.153Z,14.20
2022-07-28T05:01:28.403Z,13.90
2022-07-28T05:04:30.131Z,13.70
2022-07-28T05:07:31.773Z,14.30
2022-07-28T05:10:33.411Z,14.40
2022-07-28T05:13:35.529Z,14.20
2022-07-28T05:16:37.254Z,14.20
2022-07-28T05:19:40.125Z,13.90
2022-07-28T05:22:46.606Z,14.10
2022-07-28T05:25:48.205Z,14.20
2022-07-28T05:28:49.785Z,14.80
2022-07-28T05:31:51.515Z,14.50
2022-07-28T05:34:53.146Z,14.80
2022-07-28T05:37:54.737Z,14.80
2022-07-28T05:40:56.422Z,14.50
2022-07-28T05:43:58.415Z,14.60
2022-07-28T05:47:00.013Z,14.70
2022-07-28T05:50:02.038Z,14.90
2022-07-28T05:53:04.185Z,14.80
2022-07-28T05:56:06.491Z,14.90
2022-07-28T05:59:10.107Z,14.60
2022-07-28T06:02:11.953Z,15.00
2022-07-28T06:05:14.586Z,14.90
2022-07-28T06:08:16.246Z,15.40
2022-07-28T06:11:21.993Z,15.20
2022-07-28T06:14:24.491Z,15.10
2022-07-28T06:17:26.094Z,15.50
2022-07-28T06:20:27.933Z,15.80
2022-07-28T06:23:30.389Z,15.80
2022-07-28T06:26:32.003Z,16.10
2022-07-28T06:29:33.605Z,16.10
2022-07-28T06:32:35.264Z,16.10
2022-07-28T06:35:43.269Z,16.40
2022-07-28T06:38:52.386Z,16.80
2022-07-28T06:41:54.124Z,16.80
2022-07-28T06:44:59.453Z,18.90
2022-07-28T06:48:01.570Z,16.70
2022-07-28T06:51:03.544Z,16.90
2022-07-28T06:54:10.789Z,16.90
2022-07-28T06:57:13.738Z,16.70
2022-07-28T07:00:16.246Z,16.70
2022-07-28T07:03:17.833Z,16.70
2022-07-28T07:06:19.578Z,17.00
2022-07-28T07:09:21.216Z,17.40
2022-07-28T07:12:22.909Z,17.40
2022-07-28T07:15:24.506Z,17.00
2022-07-28T07:18:26.658Z,17.00
2022-07-28T07:21:28.258Z,17.10
2022-07-28T07:24:29.869Z,17.20
2022-07-28T07:27:31.453Z,17.00
2022-07-28T07:30:33.060Z,16.90
2022-07-28T07:33:34.668Z,17.10
2022-07-28T07:36:36.274Z,16.90
2022-07-28T07:39:37.924Z,17.80
2022-07-28T07:42:39.573Z,17.20
2022-07-28T07:45:41.461Z,17.50
2022-07-28T07:48:43.504Z,17.50
2022-07-28T07:51:45.253Z,18.00
2022-07-28T07:54:47.054Z,17.40
2022-07-28T07:57:48.845Z,18.00
2022-07-28T08:00:50.779Z,18.30
2022-07-28T08:03:53.870Z,18.50
2022-07-28T08:06:55.680Z,18.30
2022-07-28T08:09:58.174Z,18.20
2022-07-28T08:13:01.112Z,18.30
2022-07-28T08:16:04.224Z,20.20
2022-07-28T08:19:06.812Z,18.90
2022-07-28T08:22:11.238Z,18.70
2022-07-28T08:25:13.471Z,19.30
2022-07-28T08:28:15.913Z,18.70
2022-07-28T08:31:22.243Z,20.00
2022-07-28T08:34:31.299Z,19.60
2022-07-28T08:37:35.635Z,19.30
2022-07-28T08:40:39.705Z,19.10
2022-07-28T08:43:46.738Z,19.40
2022-07-28T08:46:50.016Z,19.10
2022-07-28T08:50:03.214Z,19.30
2022-07-28T08:53:08.067Z,19.30
2022-07-28T08:56:21.718Z,19.80
2022-07-28T08:59:25.488Z,19.90
2022-07-28T09:02:38.467Z,19.50
2022-07-28T09:05:42.421Z,19.30
2022-07-28T09:08:44.080Z,20.00
2022-07-28T09:11:46.112Z,20.50
2022-07-28T09:14:48.692Z,20.10
2022-07-28T09:17:50.392Z,20.70
2022-07-28T09:20:52.111Z,22.70
2022-07-28T09:23:54.630Z,21.10
2022-07-28T09:27:06.640Z,22.40
2022-07-28T09:30:09.893Z,19.90
2022-07-28T09:33:41.046Z,20.60
2022-07-28T09:36:45.833Z,20.90
2022-07-28T09:39:49.147Z,21.60
2022-07-28T09:42:54.337Z,20.40
2022-07-28T09:46:11.038Z,22.10
2022-07-28T09:49:13.380Z,20.90
2022-07-28T09:52:30.779Z,20.70
2022-07-28T09:55:53.387Z,21.10
2022-07-28T09:59:02.060Z,21.00
2022-07-28T10:02:04.218Z,20.90
2022-07-28T10:05:07.048Z,23.00
2022-07-28T10:08:08.665Z,21.20
2022-07-28T10:11:11.499Z,21.40
2022-07-28T10:14:14.150Z,21.00
2022-07-28T10:17:30.906Z,21.10
2022-07-28T10:20:34.043Z,22.10
2022-07-28T10:23:38.639Z,21.40
2022-07-28T10:26:45.507Z,23.90
2022-07-28T10:29:49.272Z,22.70
2022-07-28T10:32:54.330Z,23.70
2022-07-28T10:35:56.060Z,21.50
2022-07-28T10:39:13.949Z,21.60
2022-07-28T10:42:15.917Z,21.70
2022-07-28T10:45:18.042Z,22.10
2022-07-28T10:48:43.431Z,21.90
2022-07-28T10:52:04.937Z,22.30
2022-07-28T10:55:21.710Z,22.60
2022-07-28T10:59:04.660Z,22.40
2022-07-28T11:02:06.837Z,22.10
2022-07-28T11:05:28.800Z,22.30
2022-07-28T11:08:31.331Z,22.50
2022-07-28T11:11:50.175Z,22.30
2022-07-28T11:14:51.908Z,23.40
2022-07-28T11:18:01.647Z,22.50
2022-07-28T11:21:03.245Z,22.90
2022-07-28T11:24:05.145Z,24.60
2022-07-28T11:27:06.808Z,22.90
2022-07-28T11:30:32.661Z,23.00
2022-07-28T11:33:53.756Z,22.80
2022-07-28T11:36:58.158Z,22.50
2022-07-28T11:40:33.302Z,22.80
2022-07-28T11:43:36.032Z,23.30
2022-07-28T11:46:40.051Z,23.20
2022-07-28T11:49:42.585Z,23.40
2022-07-28T11:52:59.981Z,23.70
2022-07-28T11:56:15.703Z,23.80
2022-07-28T11:59:17.951Z,23.20
2022-07-28T12:02:22.473Z,25.10
2022-07-28T12:05:25.520Z,23.30
2022-07-28T12:08:27.305Z,24.40
2022-07-28T12:11:33.216Z,23.60
2022-07-28T12:14:40.677Z,23.20
2022-07-28T12:17:42.430Z,23.60
2022-07-28T12:20:48.614Z,23.30
2022-07-28T12:23:54.234Z,23.50
2022-07-28T12:26:57.545Z,23.40
2022-07-28T12:30:01.928Z,23.70
2022-07-28T12:33:20.172Z,24.00
2022-07-28T12:36:24.149Z,23.80
2022-07-28T12:39:26.318Z,23.50
2022-07-28T12:42:31.757Z,23.60
2022-07-28T12:45:33.490Z,23.90
2022-07-28T12:48:39.697Z,24.60
2022-07-28T12:51:45.203Z,26.00
2022-07-28T12:54:55.225Z,24.00
2022-07-28T12:57:57.920Z,24.20
2022-07-28T13:01:00.090Z,24.50
2022-07-28T13:04:01.799Z,24.40
2022-07-28T13:07:13.640Z,26.30
2022-07-28T13:10:15.296Z,25.40
2022-07-28T13:13:17.819Z,25.10
2022-07-28T13:16:25.055Z,25.20
2022-07-28T13:19:26.710Z,25.00
2022-07-28T13:22:29.383Z,25.30
2022-07-28T13:25:31.012Z,25.30
2022-07-28T13:28:34.047Z,25.50
2022-07-28T13:31:36.125Z,27.50
2022-07-28T13:34:38.203Z,26.00
2022-07-28T13:37:40.111Z,27.00
2022-07-28T13:40:41.801Z,25.20
2022-07-28T13:43:43.390Z,25.30
2022-07-28T13:46:50.536Z,25.00
2022-07-28T13:49:52.230Z,24.50
2022-07-28T13:52:54.655Z,24.30
2022-07-28T13:55:56.267Z,24.00
2022-07-28T13:58:57.863Z,24.30
2022-07-28T14:02:01.349Z,25.80
2022-07-28T14:05:03.125Z,26.40
2022-07-28T14:08:05.013Z,25.30
2022-07-28T14:11:06.833Z,25.60
2022-07-28T14:14:12.479Z,26.40
2022-07-28T14:17:40.011Z,26.20
2022-07-28T14:20:36.452Z,27.00
2022-07-28T14:23:38.085Z,28.30
2022-07-28T14:26:39.854Z,26.90
2022-07-28T14:29:43.209Z,27.00
2022-07-28T14:32:44.821Z,27.00
2022-07-28T14:35:46.899Z,26.40
2022-07-28T14:38:55.732Z,27.60
2022-07-28T14:41:57.358Z,26.10
2022-07-28T14:44:59.462Z,26.10
2022-07-28T14:48:01.067Z,27.00
2022-07-28T14:51:02.644Z,29.70
2022-07-28T14:54:04.284Z,27.80
2022-07-28T14:57:05.881Z,27.80
2022-07-28T15:00:13.219Z,27.30
2022-07-28T15:03:14.831Z,26.70
2022-07-28T15:06:16.421Z,26.30
2022-07-28T15:09:18.201Z,26.20
2022-07-28T15:12:20.064Z,27.90
2022-07-28T15:15:26.325Z,26.20
2022-07-28T15:18:28.037Z,25.90
2022-07-28T15:21:35.899Z,26.10
2022-07-28T15:24:38.042Z,26.80
2022-07-28T15:27:45.337Z,25.90
2022-07-28T15:30:51.677Z,27.20
2022-07-28T15:33:57.670Z,25.60
2022-07-28T15:37:00.880Z,28.20
2022-07-28T15:40:02.674Z,25.50
2022-07-28T15:43:04.356Z,25.40
2022-07-28T15:46:09.272Z,27.00
2022-07-28T15:49:11.974Z,26.10
2022-07-28T15:52:14.507Z,24.80
2022-07-28T15:55:16.195Z,24.70
2022-07-28T15:58:17.971Z,25.00
2022-07-28T16:01:20.333Z,26.00
2022-07-28T16:04:21.923Z,24.40
2022-07-28T16:07:28.087Z,26.20
2022-07-28T16:10:29.722Z,24.50
2022-07-28T16:13:37.058Z,25.80
2022-07-28T16:16:39.111Z,24.00
2022-07-28T16:19:49.925Z,24.00
2022-07-28T16:22:52.431Z,24.20
2022-07-28T16:25:54.011Z,24.30
2022-07-28T16:28:55.803Z,24.40
2022-07-28T16:31:57.523Z,24.10
2022-07-28T16:34:59.162Z,24.10
2022-07-28T16:38:02.464Z,25.10
2022-07-28T16:41:04.102Z,26.20
2022-07-28T16:44:06.411Z,23.70
2022-07-28T16:47:08.248Z,23.60
2022-07-28T16:50:09.969Z,23.60
2022-07-28T16:53:13.012Z,23.50
2022-07-28T16:56:17.318Z,23.70
2022-07-28T16:59:18.916Z,24.50
2022-07-28T17:02:20.546Z,23.70
2022-07-28T17:05:23.868Z,23.40
2022-07-28T17:08:27.653Z,23.60
2022-07-28T17:11:29.881Z,23.00
2022-07-28T17:14:32.302Z,23.60
2022-07-28T17:17:34.630Z,23.30
2022-07-28T17:20:40.682Z,23.20
2022-07-28T17:23:43.684Z,23.00
2022-07-28T17:30:10.501Z,23.30
2022-07-28T17:33:12.826Z,23.50
2022-07-28T17:36:16.061Z,21.90
2022-07-28T17:39:18.398Z,23.50
2022-07-28T17:42:20.728Z,23.30
2022-07-28T17:45:24.195Z,23.20
2022-07-28T17:48:26.577Z,22.70
2022-07-28T17:51:29.388Z,22.90
2022-07-28T17:54:51.685Z,22.90
2022-07-28T17:57:54.978Z,23.00
2022-07-28T18:01:11.065Z,23.00
2022-07-28T18:04:14.491Z,22.90
2022-07-28T18:07:17.090Z,21.30
2022-07-28T18:10:24.770Z,23.00
2022-07-28T18:13:29.748Z,22.80
2022-07-28T18:16:31.791Z,22.70
2022-07-28T18:19:34.150Z,22.80
2022-07-28T18:22:36.534Z,22.60
2022-07-28T18:25:43.467Z,22.40
2022-07-28T18:28:47.632Z,22.30
2022-07-28T18:31:57.522Z,22.20
2022-07-28T18:34:59.949Z,22.50
2022-07-28T18:38:02.425Z,24.00
2022-07-28T18:41:07.106Z,22.30
2022-07-28T18:44:09.369Z,21.90
2022-07-28T18:47:16.456Z,22.30
2022-07-28T18:50:28.110Z,22.30
2022-07-28T18:53:39.374Z,22.20
2022-07-28T18:56:46.950Z,21.90
2022-07-28T18:59:52.387Z,21.80
2022-07-28T19:02:59.404Z,21.90
2022-07-28T19:06:01.792Z,22.00
2022-07-28T19:09:04.496Z,21.60
2022-07-28T19:12:07.016Z,22.00
2022-07-28T19:15:09.015Z,21.40
2022-07-28T19:18:12.082Z,22.10
2022-07-28T19:21:13.972Z,21.40
2022-07-28T19:24:16.927Z,21.40
2022-07-28T19:27:20.261Z,21.60
2022-07-28T19:30:22.777Z,21.80
2022-07-28T19:33:25.527Z,21.60
2022-07-28T19:36:27.799Z,21.80
2022-07-28T19:39:33.968Z,21.60
2022-07-28T19:42:35.698Z,21.50
2022-07-28T19:45:37.493Z,21.50
2022-07-28T19:48:39.521Z,21.60
2022-07-28T19:51:41.342Z,21.50
2022-07-28T19:54:43.084Z,21.70
2022-07-28T19:57:55.087Z,21.50
2022-07-28T20:00:57.112Z,22.50
2022-07-28T20:04:01.542Z,21.20
2022-07-28T20:07:10.595Z,21.00
2022-07-28T20:10:13.934Z,21.30
2022-07-28T20:13:15.675Z,21.50
2022-07-28T20:16:17.649Z,22.00
2022-07-28T20:19:19.398Z,21.30
2022-07-28T20:22:21.224Z,21.00
2022-07-28T20:25:22.927Z,19.50
2022-07-28T20:28:25.016Z,22.80
2022-07-28T20:31:26.822Z,21.40
2022-07-28T20:34:28.691Z,23.30
2022-07-28T20:37:36.801Z,21.00
2022-07-28T20:40:39.277Z,21.40
2022-07-28T20:43:40.972Z,22.30
2022-07-28T20:46:42.736Z,21.10
2022-07-28T20:49:46.453Z,20.90
2022-07-28T20:52:57.800Z,21.10
2022-07-28T20:56:26.697Z,22.50
2022-07-28T20:59:29.842Z,20.70
2022-07-28T21:02:39.611Z,21.00
2022-07-28T21:05:57.652Z,20.70
2022-07-28T21:09:04.945Z,20.90
2022-07-28T21:12:07.624Z,21.10
2022-07-28T21:15:10.653Z,20.90
2022-07-28T21:18:13.630Z,21.00
2022-07-28T21:21:16.167Z,20.80
2022-07-28T21:24:19.749Z,20.60
2022-07-28T21:27:22.725Z,20.90
2022-07-28T21:30:28.481Z,20.70
2022-07-28T21:33:34.548Z,20.90
2022-07-28T21:36:37.079Z,20.80
2022-07-28T21:39:39.494Z,20.90
2022-07-28T21:42:46.886Z,20.70
2022-07-28T21:45:50.280Z,22.20
2022-07-28T21:48:56.643Z,20.70
2022-07-28T21:51:59.186Z,20.90
2022-07-28T21:55:13.235Z,20.30
2022-07-28T21:58:19.350Z,21.50
2022-07-28T22:01:22.705Z,20.30
2022-07-28T22:04:28.184Z,20.40
2022-07-28T22:07:30.525Z,20.20
2022-07-28T22:10:32.952Z,20.50
2022-07-28T22:13:35.483Z,20.30
2022-07-28T22:16:38.035Z,21.60
2022-07-28T22:19:40.519Z,20.20
2022-07-28T22:22:42.970Z,20.40
2022-07-28T22:25:45.449Z,18.30
2022-07-28T22:28:48.341Z,23.00
2022-07-28T22:31:51.947Z,19.90
2022-07-28T22:34:58.851Z,20.40
2022-07-28T22:38:06.122Z,19.90
2022-07-28T22:41:09.838Z,20.20
2022-07-28T22:44:16.319Z,20.30
2022-07-28T22:47:19.044Z,18.80
2022-07-28T22:50:21.553Z,20.40
2022-07-28T22:53:26.690Z,20.30
2022-07-28T22:56:34.880Z,20.40
2022-07-28T22:59:40.334Z,22.60
2022-07-28T23:02:45.607Z,20.20
2022-07-28T23:05:48.088Z,20.00
2022-07-28T23:08:53.224Z,21.70
2022-07-28T23:11:56.233Z,20.20
2022-07-28T23:14:58.683Z,21.10
2022-07-28T23:18:00.311Z,20.00
2022-07-28T23:21:04.386Z,20.10
2022-07-28T23:24:06.872Z,20.00
2022-07-28T23:27:08.458Z,19.80
2022-07-28T23:30:10.571Z,20.00
2022-07-28T23:33:15.517Z,19.80
2022-07-28T23:36:34.920Z,20.60
2022-07-28T23:39:36.535Z,19.60
2022-07-28T23:42:38.116Z,21.40
2022-07-28T23:45:39.788Z,20.10
2022-07-28T23:48:41.423Z,19.70
2022-07-28T23:51:47.693Z,19.70
2022-07-28T23:54:50.272Z,19.50
2022-07-28T23:57:51.856Z,19.40
